This is the latest recevied weather packets stored in our database for station/object IQ8VX-3. If no packets are shown the sender has not sent any weather packets the latest 10 day(s).
| Time | Temp. | Humidity | Pressure | Rain* | Wind** | Luminosity | Snow |
|---|---|---|---|---|---|---|---|
| 1777529734 | 18.89° C | 67% | 1704.5 hPa | - | - | - | - |
| 1777528533 | 18.89° C | 67% | 1705.3 hPa | - | - | - | - |
| 1777527333 | 17.78° C | 71% | 1702.8 hPa | - | - | - | - |
| 1777526133 | 17.78° C | 71% | 1701.8 hPa | - | - | - | - |
| 1777524933 | 17.22° C | 72% | 1700.4 hPa | - | - | - | - |
| 1777523732 | 16.67° C | 72% | 1698.8 hPa | - | - | - | - |
| 1777522532 | 16.11° C | 69% | 1697.3 hPa | - | - | - | - |
| 1777521331 | 16.11° C | 64% | 1697.9 hPa | - | - | - | - |
| 1777520131 | 16.67° C | 64% | 1699 hPa | - | - | - | - |
| 1777518931 | 17.22° C | 68% | 1700 hPa | - | - | - | - |
| 1777517730 | 17.22° C | 69% | 1700.1 hPa | - | - | - | - |
| 1777516530 | 17.22° C | 69% | 1700 hPa | - | - | - | - |
| 1777515330 | 17.22° C | 63% | 1700.6 hPa | - | - | - | - |
| 1777514129 | 17.78° C | 53% | 1702.1 hPa | - | - | - | - |
| 1777512929 | 17.78° C | 53% | 1702.1 hPa | - | - | - | - |
| 1777511729 | 17.78° C | 55% | 1701.4 hPa | - | - | - | - |
| 1777510528 | 17.78° C | 52% | 1702.4 hPa | - | - | - | - |
| 1777509328 | 18.33° C | 51% | 1703.2 hPa | - | - | - | - |
| 1777508135 | 18.33° C | 50% | 1703.6 hPa | - | - | - | - |
| 1777506927 | 18.33° C | 51% | 1703.1 hPa | - | - | - | - |
| 1777505727 | 17.78° C | 51% | 1702.5 hPa | - | - | - | - |
| 1777504527 | 17.78° C | 51% | 1702.4 hPa | - | - | - | - |
| 1777503326 | 17.78° C | 50% | 1702.6 hPa | - | - | - | - |
| 1777502126 | 18.33° C | 50% | 1702.9 hPa | - | - | - | - |
| 1777500926 | 18.33° C | 51% | 1703.1 hPa | - | - | - | - |
* Rain since midnight (hover to see other rain measurements)
** Current wind speed in m/s (hover to see current wind gust speed)